GLD1793 LPCR-LPFL

Flight info

Callsign GLD1793
Flight time 0h 7m
Altitude 3000
Route DCT FRS DCT
Aircraft BE58/M-SDFGIRY/S

Departure

Time 2026-05-09 20:29
Airport Corvo Airport (LPCR)

Arrival

Time 2026-05-09 20:37
Airport Flores Airport (LPFL)
Time Latitude Longitude Altitude Speed Heading
2026-05-09 20:23 39.67081 -31.11317 42 ft 0 kts 158°
2026-05-09 20:26 39.67087 -31.11317 41 ft 2 kts 220°
2026-05-09 20:27 39.67098 -31.11301 37 ft 2 kts 238°
2026-05-09 20:27 39.67105 -31.11282 37 ft 2 kts 248°
2026-05-09 20:27 39.67110 -31.11262 37 ft 2 kts 256°
2026-05-09 20:27 39.67112 -31.11253 37 ft 0 kts 263°
2026-05-09 20:28 39.67112 -31.11256 37 ft 2 kts 274°
2026-05-09 20:28 39.67116 -31.11293 37 ft 5 kts 277°
2026-05-09 20:28 39.67144 -31.11514 35 ft 17 kts 272°
2026-05-09 20:29 39.67194 -31.12373 139 ft 86 kts 275°
2026-05-09 20:29 39.66839 -31.13102 394 ft 114 kts 216°
2026-05-09 20:29 39.65936 -31.13246 569 ft 148 kts 174°
2026-05-09 20:29 39.64911 -31.12999 1095 ft 150 kts 158°
2026-05-09 20:30 39.63934 -31.12533 1612 ft 153 kts 151°
2026-05-09 20:30 39.62908 -31.12023 1994 ft 170 kts 153°
2026-05-09 20:30 39.61716 -31.11423 2010 ft 195 kts 154°
2026-05-09 20:30 39.60332 -31.10998 2007 ft 213 kts 171°
2026-05-09 20:31 39.58819 -31.11013 2006 ft 221 kts 186°
2026-05-09 20:31 39.57314 -31.11485 2009 ft 226 kts 201°
2026-05-09 20:31 39.55830 -31.12175 1998 ft 229 kts 189°
2026-05-09 20:31 39.54260 -31.11999 1992 ft 227 kts 163°
2026-05-09 20:32 39.52705 -31.11616 2000 ft 229 kts 171°
2026-05-09 20:32 39.51115 -31.11505 2003 ft 231 kts 177°
2026-05-09 20:32 39.49494 -31.11463 2002 ft 231 kts 176°
2026-05-09 20:32 39.47907 -31.11379 1999 ft 231 kts 175°
2026-05-09 20:33 39.46307 -31.11279 2001 ft 231 kts 175°
2026-05-09 20:33 39.44676 -31.11182 1805 ft 240 kts 175°
2026-05-09 20:33 39.42986 -31.11085 1486 ft 246 kts 175°
2026-05-09 20:33 39.41354 -31.10993 1177 ft 222 kts 176°
2026-05-09 20:34 39.39943 -31.11216 914 ft 189 kts 209°
2026-05-09 20:34 39.39329 -31.11859 901 ft 156 kts 240°
2026-05-09 20:34 39.39146 -31.12964 896 ft 104 kts 303°
2026-05-09 20:34 39.39620 -31.13277 905 ft 81 kts 15°
2026-05-09 20:35 39.40324 -31.13023 915 ft 83 kts 23°
2026-05-09 20:35 39.40684 -31.12873 961 ft 76 kts
2026-05-09 20:35 39.41165 -31.12721 924 ft 70 kts
2026-05-09 20:35 39.41658 -31.12632 868 ft 73 kts
2026-05-09 20:36 39.42193 -31.12523 798 ft 78 kts
2026-05-09 20:36 39.42742 -31.12500 680 ft 80 kts 358°
2026-05-09 20:36 39.43316 -31.12567 483 ft 85 kts 349°
2026-05-09 20:36 39.43903 -31.12702 358 ft 88 kts 350°
2026-05-09 20:37 39.44491 -31.12846 221 ft 84 kts 347°
2026-05-09 20:37 39.45008 -31.12993 109 ft 66 kts 346°
2026-05-09 20:37 39.45403 -31.13100 95 ft 47 kts 346°
2026-05-09 20:37 39.45648 -31.13163 93 ft 26 kts 345°
2026-05-09 20:38 39.45777 -31.13200 92 ft 14 kts 355°
2026-05-09 20:38 39.45821 -31.13132 90 ft 9 kts 81°
2026-05-09 20:38 39.45831 -31.13077 89 ft 3 kts 14°
2026-05-09 20:38 39.45835 -31.13078 89 ft 0 kts 326°